Time;durP1;ratioP1;P1;durP2;ratioP2;P2;SDS_P1;SDS_P2;PMS_P1;PMS_P2;Temp;Humidity;BMP_temperature;BMP_pressure;BME280_temperature;BME280_humidity;BME280_pressure;Samples;Min_cycle;Max_cycle;Signal;HPM_P1;HPM_P2
2022/04/12 00:00:31;;;;;;;792.90;749.50;;;11.40;99.90;;;;;;5076773;28;20177;-66
2022/04/12 00:02:57;;;;;;;791.67;748.43;;;11.40;99.90;;;;;;5076092;28;20644;-66
2022/04/12 00:05:23;;;;;;;805.77;761.13;;;11.30;99.90;;;;;;5055100;28;20185;-67
2022/04/12 00:07:49;;;;;;;793.37;749.93;;;11.30;99.90;;;;;;5072467;28;20220;-66
2022/04/12 00:10:21;;;;;;;801.13;757.10;;;11.20;99.90;;;;;;5075302;28;20212;-66
2022/04/12 00:12:47;;;;;;;793.90;750.43;;;11.30;99.90;;;;;;5043418;28;20193;-66
2022/04/12 00:15:13;;;;;;;791.53;748.17;;;11.30;99.90;;;;;;5092647;28;20263;-66
2022/04/12 00:20:26;;;;;;;800.83;756.83;;;11.50;99.90;;;;;;5093595;28;20258;-66
2022/04/12 00:22:52;;;;;;;792.60;749.13;;;11.40;99.90;;;;;;5093475;28;20181;-66
2022/04/12 00:25:22;;;;;;;793.93;750.50;;;11.20;99.90;;;;;;5093369;28;20177;-66
2022/04/12 00:27:48;;;;;;;793.67;750.00;;;11.20;99.90;;;;;;5074957;28;20248;-66
2022/04/12 00:30:14;;;;;;;803.70;758.67;;;11.30;99.90;;;;;;5074719;28;20195;-67
2022/04/12 00:32:43;;;;;;;790.87;747.67;;;11.20;99.90;;;;;;5058738;28;20185;-67
2022/04/12 00:35:09;;;;;;;795.63;752.00;;;11.00;99.90;;;;;;5056215;28;20178;-67
2022/04/12 00:37:35;;;;;;;798.77;754.73;;;11.00;99.90;;;;;;5056008;28;20189;-66
2022/04/12 00:40:01;;;;;;;795.30;751.63;;;10.90;99.90;;;;;;5073554;28;20622;-67
2022/04/12 00:42:27;;;;;;;789.20;745.73;;;10.90;99.90;;;;;;5058828;28;20597;-66
2022/04/12 00:44:52;;;;;;;793.37;749.73;;;10.90;99.90;;;;;;5058511;28;20192;-67
2022/04/12 00:47:18;;;;;;;789.50;746.57;;;10.90;99.90;;;;;;5047578;28;20224;-67
2022/04/12 00:49:44;;;;;;;799.10;754.80;;;11.00;99.90;;;;;;5058564;28;20181;-66
2022/04/12 00:52:10;;;;;;;797.93;754.10;;;10.90;99.90;;;;;;5054653;28;20186;-66
2022/04/12 00:54:38;;;;;;;787.17;744.40;;;10.90;99.90;;;;;;5072327;28;20189;-66
2022/04/12 00:57:05;;;;;;;806.17;761.13;;;10.80;99.90;;;;;;5085587;28;20547;-66
2022/04/12 00:59:35;;;;;;;786.63;744.03;;;10.80;99.90;;;;;;5091982;28;20246;-65
2022/04/12 01:02:04;;;;;;;791.67;748.33;;;10.90;99.90;;;;;;5093150;28;20192;-65
2022/04/12 01:04:31;;;;;;;798.57;754.57;;;11.00;99.90;;;;;;5074139;28;20271;-65
2022/04/12 01:06:57;;;;;;;792.20;748.87;;;11.10;99.90;;;;;;5092315;28;20265;-65
2022/04/12 01:09:26;;;;;;;794.77;750.80;;;11.20;99.90;;;;;;5057697;28;20192;-65
2022/04/12 01:11:56;;;;;;;791.27;748.10;;;11.20;99.90;;;;;;5074850;28;20197;-65
2022/04/12 01:14:24;;;;;;;795.23;751.57;;;11.10;99.90;;;;;;5092928;28;20181;-65
2022/04/12 01:16:51;;;;;;;789.27;746.43;;;11.10;99.90;;;;;;5069975;28;20199;-65
2022/04/12 01:19:16;;;;;;;790.87;747.57;;;11.10;99.90;;;;;;5049793;28;20669;-65
2022/04/12 01:21:50;;;;;;;789.70;747.13;;;11.20;99.90;;;;;;5087835;28;20188;-65
2022/04/12 01:24:16;;;;;;;789.23;746.47;;;11.00;99.90;;;;;;5092557;28;20188;-65
2022/04/12 01:26:41;;;;;;;786.43;743.73;;;10.90;99.90;;;;;;5091754;28;20217;-65
2022/04/12 01:29:07;;;;;;;785.90;743.37;;;10.90;99.90;;;;;;5074175;28;20673;-65
2022/04/12 01:31:33;;;;;;;786.47;744.07;;;10.90;99.90;;;;;;5075049;28;20261;-65
2022/04/12 01:33:58;;;;;;;788.53;745.83;;;10.80;99.90;;;;;;5092685;28;20184;-65
2022/04/12 01:36:24;;;;;;;772.47;731.43;;;10.80;99.90;;;;;;5056485;28;20218;-65
2022/04/12 01:38:50;;;;;;;786.23;743.50;;;10.90;99.90;;;;;;5075430;28;20184;-65
2022/04/12 01:41:16;;;;;;;777.40;735.53;;;11.00;99.90;;;;;;5073966;28;20195;-65
2022/04/12 01:43:41;;;;;;;782.70;740.27;;;10.90;99.90;;;;;;5073396;28;20188;-64
2022/04/12 01:46:07;;;;;;;783.40;741.27;;;10.70;99.90;;;;;;5057542;28;20181;-64
2022/04/12 01:48:33;;;;;;;787.90;744.90;;;10.70;99.90;;;;;;5092050;28;20307;-65
2022/04/12 01:50:58;;;;;;;783.10;740.87;;;10.80;99.90;;;;;;5040897;28;20220;-64
2022/04/12 01:53:24;;;;;;;780.53;738.47;;;10.80;99.90;;;;;;5073910;28;20187;-65
2022/04/12 01:55:50;;;;;;;785.30;742.83;;;10.80;99.90;;;;;;5071696;28;20181;-65
2022/04/12 01:58:15;;;;;;;788.67;745.60;;;10.70;99.90;;;;;;5091712;28;20196;-65
2022/04/12 02:00:42;;;;;;;779.87;737.53;;;10.70;99.90;;;;;;5073598;28;20212;-65
2022/04/12 02:03:09;;;;;;;795.10;751.30;;;10.70;99.90;;;;;;5092206;28;20195;-65
2022/04/12 02:05:35;;;;;;;787.37;744.47;;;10.70;99.90;;;;;;5074070;28;20216;-65
2022/04/12 02:08:01;;;;;;;789.33;746.23;;;10.70;99.90;;;;;;5057530;28;20572;-66
2022/04/12 02:10:27;;;;;;;788.00;745.03;;;10.70;99.90;;;;;;5074061;28;20180;-66
2022/04/12 02:12:52;;;;;;;792.83;749.30;;;10.60;99.90;;;;;;5092275;28;20196;-65
2022/04/12 02:15:18;;;;;;;786.20;743.50;;;10.60;99.90;;;;;;5071906;28;20281;-65
2022/04/12 02:17:44;;;;;;;788.17;745.50;;;10.50;99.90;;;;;;5068256;28;20283;-66
2022/04/12 02:20:10;;;;;;;789.13;746.27;;;10.50;99.90;;;;;;5059181;28;20662;-66
2022/04/12 02:22:37;;;;;;;785.67;743.20;;;10.40;99.90;;;;;;5075503;28;20279;-66
2022/04/12 02:25:04;;;;;;;781.70;739.63;;;10.50;99.90;;;;;;5095911;28;20234;-65
2022/04/12 02:27:30;;;;;;;787.63;745.17;;;10.40;99.90;;;;;;5076403;28;20271;-66
2022/04/12 02:29:56;;;;;;;788.23;745.67;;;10.30;99.90;;;;;;5077508;28;20184;-66
2022/04/12 02:32:21;;;;;;;786.83;744.13;;;10.30;99.90;;;;;;5065464;28;20181;-66
2022/04/12 02:34:47;;;;;;;784.93;742.63;;;10.30;99.90;;;;;;5077758;28;20204;-65
2022/04/12 02:37:13;;;;;;;773.23;732.40;;;10.30;99.90;;;;;;5077360;28;20195;-65
2022/04/12 02:39:38;;;;;;;784.53;742.20;;;10.30;99.90;;;;;;5077902;28;20664;-65
2022/04/12 02:42:06;;;;;;;783.13;740.87;;;10.30;99.90;;;;;;5094536;28;20259;-66
2022/04/12 02:44:31;;;;;;;794.40;751.13;;;10.40;99.90;;;;;;5077510;28;20195;-66
2022/04/12 02:46:57;;;;;;;786.00;743.87;;;10.40;99.90;;;;;;5060848;28;20212;-65
2022/04/12 02:49:22;;;;;;;787.27;744.83;;;10.30;99.90;;;;;;5076511;28;20224;-66
2022/04/12 02:51:50;;;;;;;788.57;746.13;;;10.30;99.90;;;;;;5077975;28;20177;-66
2022/04/12 02:54:16;;;;;;;794.63;751.33;;;10.00;99.90;;;;;;5059397;28;20519;-66
2022/04/12 02:56:41;;;;;;;787.57;744.80;;;9.90;99.90;;;;;;5077311;28;20199;-66
2022/04/12 02:59:07;;;;;;;789.80;746.93;;;9.80;99.90;;;;;;5094927;28;20232;-66
2022/04/12 03:01:34;;;;;;;787.97;745.40;;;9.90;99.90;;;;;;5044137;28;20279;-66
2022/04/12 03:04:00;;;;;;;785.23;742.67;;;9.90;99.90;;;;;;5072429;28;20190;-66
2022/04/12 03:06:26;;;;;;;788.00;745.33;;;9.90;99.90;;;;;;5087889;28;20287;-65
2022/04/12 03:08:51;;;;;;;787.73;745.20;;;10.00;99.90;;;;;;5095443;28;20263;-66
2022/04/12 03:11:17;;;;;;;782.90;740.97;;;9.90;99.90;;;;;;5076914;28;20660;-66
2022/04/12 03:13:43;;;;;;;783.70;741.57;;;9.80;99.90;;;;;;5060862;28;20264;-65
2022/04/12 03:16:08;;;;;;;782.93;740.83;;;9.70;99.90;;;;;;5076445;28;20189;-66
2022/04/12 03:18:34;;;;;;;775.57;734.30;;;9.70;99.90;;;;;;5069548;28;20197;-66
2022/04/12 03:21:00;;;;;;;778.63;737.03;;;9.70;99.90;;;;;;5068269;28;20193;-66
2022/04/12 03:23:25;;;;;;;778.97;737.40;;;9.70;99.90;;;;;;5077002;28;20216;-67
2022/04/12 03:25:51;;;;;;;777.93;736.30;;;9.60;99.90;;;;;;5058595;28;20196;-68
2022/04/12 03:28:17;;;;;;;775.00;733.77;;;9.60;99.90;;;;;;5075770;28;20224;-67
2022/04/12 03:30:42;;;;;;;777.77;736.23;;;9.60;99.90;;;;;;5076827;28;20188;-67
2022/04/12 03:33:08;;;;;;;770.30;729.30;;;9.60;99.90;;;;;;5075931;28;20258;-67
2022/04/12 03:35:35;;;;;;;772.57;731.10;;;9.60;99.90;;;;;;5077347;28;20523;-67
2022/04/12 03:38:01;;;;;;;770.97;729.93;;;9.60;99.90;;;;;;5093755;28;20196;-67
2022/04/12 03:40:31;;;;;;;776.63;734.97;;;9.60;99.90;;;;;;5060766;28;20617;-67
2022/04/12 03:43:01;;;;;;;772.63;731.47;;;9.50;99.90;;;;;;5076394;28;20274;-67
2022/04/12 03:45:27;;;;;;;779.70;737.97;;;9.50;99.90;;;;;;5076869;28;20637;-67
2022/04/12 03:47:53;;;;;;;774.53;733.20;;;9.40;99.90;;;;;;5070886;28;20221;-67
2022/04/12 03:50:19;;;;;;;782.23;740.37;;;9.40;99.90;;;;;;5056501;28;20193;-67
2022/04/12 03:52:44;;;;;;;781.30;739.47;;;9.40;99.90;;;;;;5093621;28;20637;-67
2022/04/12 03:55:10;;;;;;;774.43;733.17;;;9.40;99.90;;;;;;5094667;28;20230;-67
2022/04/12 03:57:37;;;;;;;778.53;736.93;;;9.30;99.90;;;;;;5058781;28;20192;-67
2022/04/12 04:00:08;;;;;;;779.70;737.77;;;9.30;99.90;;;;;;5076920;28;20560;-67
2022/04/12 04:02:34;;;;;;;776.60;734.93;;;9.20;99.90;;;;;;5075399;28;20188;-67
2022/04/12 04:05:00;;;;;;;775.93;734.63;;;9.20;99.90;;;;;;5093380;28;20628;-68
2022/04/12 04:07:27;;;;;;;775.57;734.10;;;9.20;99.90;;;;;;5079559;28;20214;-67
2022/04/12 04:09:53;;;;;;;769.77;729.00;;;9.30;99.90;;;;;;5059740;28;20547;-67
2022/04/12 04:12:19;;;;;;;768.53;727.90;;;9.30;99.90;;;;;;5058930;28;20256;-67
2022/04/12 04:14:45;;;;;;;771.77;731.17;;;9.30;99.90;;;;;;5092544;28;20278;-67
2022/04/12 04:17:10;;;;;;;766.67;726.40;;;9.30;99.90;;;;;;5085911;28;20200;-67
2022/04/12 04:19:36;;;;;;;750.97;712.03;;;9.20;99.90;;;;;;5075890;28;20643;-67
2022/04/12 04:22:02;;;;;;;756.97;717.63;;;9.20;99.90;;;;;;5054086;28;20181;-67
2022/04/12 04:24:28;;;;;;;746.03;707.67;;;9.20;99.90;;;;;;5071198;28;20199;-67
2022/04/12 04:26:55;;;;;;;730.70;693.60;;;9.10;99.90;;;;;;5042348;28;20225;-67
2022/04/12 04:29:27;;;;;;;731.17;694.10;;;9.00;99.90;;;;;;5075219;28;20188;-67
2022/04/12 04:31:52;;;;;;;728.50;691.60;;;9.10;99.90;;;;;;5059756;28;20546;-67
2022/04/12 04:34:18;;;;;;;719.23;682.93;;;9.10;99.90;;;;;;5042359;28;20185;-67
2022/04/12 04:36:44;;;;;;;700.43;665.67;;;9.10;99.90;;;;;;5074545;28;20196;-67
2022/04/12 04:39:10;;;;;;;691.43;657.57;;;9.20;99.90;;;;;;5075339;28;20219;-67
2022/04/12 04:41:35;;;;;;;702.73;667.53;;;9.30;99.90;;;;;;5058758;28;20668;-67
2022/04/12 04:44:01;;;;;;;682.20;648.90;;;9.30;99.90;;;;;;5074556;28;20212;-67
2022/04/12 04:46:28;;;;;;;685.93;652.73;;;9.20;99.90;;;;;;5093291;28;20636;-66
2022/04/12 04:48:53;;;;;;;684.73;651.13;;;9.20;99.90;;;;;;5059672;28;20185;-66
2022/04/12 04:51:19;;;;;;;671.03;638.73;;;9.20;99.90;;;;;;5074768;28;20184;-65
2022/04/12 04:53:49;;;;;;;657.27;626.10;;;9.00;99.90;;;;;;5073786;28;20192;-65
2022/04/12 04:56:15;;;;;;;647.87;617.57;;;9.00;99.90;;;;;;5093442;28;20173;-66
2022/04/12 04:58:41;;;;;;;623.13;594.63;;;8.90;99.90;;;;;;5075925;28;20254;-66
2022/04/12 05:01:07;;;;;;;604.13;576.77;;;8.80;99.90;;;;;;5073676;28;20193;-67
2022/04/12 05:03:33;;;;;;;585.87;559.70;;;8.90;99.90;;;;;;5058294;28;20220;-66
2022/04/12 05:05:58;;;;;;;575.97;550.60;;;9.00;99.90;;;;;;5073952;28;20233;-66
2022/04/12 05:08:24;;;;;;;559.03;534.50;;;9.00;99.90;;;;;;5057717;28;20208;-66
2022/04/12 05:10:50;;;;;;;533.93;510.83;;;9.00;99.90;;;;;;5092613;28;20650;-66
2022/04/12 05:13:16;;;;;;;517.30;495.27;;;9.10;99.90;;;;;;5062697;28;20177;-66
2022/04/12 05:15:42;;;;;;;487.37;467.07;;;9.10;99.90;;;;;;5058212;28;20524;-66
2022/04/12 05:18:08;;;;;;;458.63;439.97;;;9.10;99.90;;;;;;5074618;28;20200;-66
2022/04/12 05:20:34;;;;;;;437.07;419.47;;;9.10;99.90;;;;;;5090073;28;20197;-66
2022/04/12 05:23:00;;;;;;;402.30;386.33;;;9.10;99.90;;;;;;5055459;28;20177;-67
2022/04/12 05:25:25;;;;;;;382.53;367.23;;;9.20;99.90;;;;;;5092390;28;20192;-66
2022/04/12 05:27:51;;;;;;;337.03;323.83;;;9.20;99.90;;;;;;5074206;28;20225;-67
2022/04/12 05:30:17;;;;;;;291.63;280.20;;;9.30;99.90;;;;;;5064669;28;20654;-66
2022/04/12 05:32:43;;;;;;;277.00;266.13;;;9.30;99.90;;;;;;5032654;28;20191;-68
2022/04/12 05:35:10;;;;;;;264.87;254.37;;;9.40;99.90;;;;;;5073413;28;20185;-66
2022/04/12 05:37:42;;;;;;;234.57;225.33;;;9.40;99.90;;;;;;5074393;28;20550;-66
2022/04/12 05:40:10;;;;;;;217.07;208.07;;;9.20;99.90;;;;;;5073462;28;20238;-66
2022/04/12 05:42:36;;;;;;;200.50;192.50;;;9.10;99.90;;;;;;5057057;28;20271;-66
2022/04/12 05:45:01;;;;;;;180.10;172.60;;;9.20;99.90;;;;;;5075401;28;20661;-67
2022/04/12 05:47:27;;;;;;;165.27;158.50;;;9.30;99.90;;;;;;5091196;28;20269;-68
2022/04/12 05:49:53;;;;;;;147.23;140.90;;;9.40;99.90;;;;;;5077343;28;20245;-67
2022/04/12 05:52:19;;;;;;;123.33;118.13;;;9.50;99.90;;;;;;5061375;28;20180;-68
2022/04/12 05:54:45;;;;;;;111.07;106.40;;;9.60;99.90;;;;;;5074364;28;20189;-67
2022/04/12 05:57:11;;;;;;;106.63;102.20;;;9.70;99.90;;;;;;5074675;28;20185;-67
2022/04/12 05:59:36;;;;;;;99.43;95.23;;;9.80;99.90;;;;;;5061039;28;20204;-67
2022/04/12 06:02:02;;;;;;;94.27;90.07;;;9.90;99.90;;;;;;5078019;28;20307;-67
2022/04/12 06:04:27;;;;;;;85.10;81.17;;;10.10;99.90;;;;;;5044460;28;20215;-68
2022/04/12 06:06:53;;;;;;;99.73;95.53;;;10.10;99.90;;;;;;5061370;28;20251;-67
2022/04/12 06:09:19;;;;;;;107.73;102.83;;;10.10;99.90;;;;;;5079160;28;20180;-67
2022/04/12 06:11:45;;;;;;;72.97;69.97;;;10.20;99.90;;;;;;5063995;28;20188;-67
2022/04/12 06:14:10;;;;;;;79.53;76.10;;;10.30;99.90;;;;;;5096028;28;20184;-67
2022/04/12 06:16:37;;;;;;;82.33;78.47;;;10.40;99.90;;;;;;5095593;28;20255;-67
2022/04/12 06:19:02;;;;;;;82.60;79.17;;;10.30;99.90;;;;;;5077485;28;20530;-68
2022/04/12 06:21:28;;;;;;;98.67;94.30;;;10.40;99.90;;;;;;5068580;28;20276;-67
2022/04/12 06:23:54;;;;;;;114.87;109.87;;;10.50;99.90;;;;;;5074203;28;20192;-67
2022/04/12 06:26:19;;;;;;;94.10;89.93;;;10.70;99.90;;;;;;5077183;28;20235;-67
2022/04/12 06:28:45;;;;;;;109.83;105.20;;;10.90;99.90;;;;;;5096031;28;20266;-67
2022/04/12 06:31:11;;;;;;;129.63;124.17;;;11.10;99.90;;;;;;5077802;28;20192;-67
2022/04/12 06:33:36;;;;;;;138.13;132.43;;;11.40;99.90;;;;;;5057847;28;20192;-67
2022/04/12 06:36:02;;;;;;;128.20;123.03;;;11.70;99.90;;;;;;5076804;28;20645;-67
2022/04/12 06:38:28;;;;;;;124.13;119.10;;;11.60;99.90;;;;;;5096194;28;20189;-67
2022/04/12 06:40:53;;;;;;;166.23;159.23;;;11.70;99.90;;;;;;5095949;28;20292;-67
2022/04/12 06:43:19;;;;;;;204.37;196.13;;;11.80;99.90;;;;;;5085518;28;20189;-67
2022/04/12 06:45:45;;;;;;;224.07;215.13;;;12.10;99.90;;;;;;5060939;28;20191;-67
2022/04/12 06:48:11;;;;;;;253.50;243.37;;;12.30;99.90;;;;;;5060142;28;20216;-68
2022/04/12 06:50:36;;;;;;;331.85;318.25;;;12.50;99.90;;;;;;5076836;28;20237;-67
2022/04/12 06:53:03;;;;;;;281.35;269.77;;;12.80;99.90;;;;;;5091649;28;20191;-67
2022/04/12 06:55:29;;;;;;;330.60;317.25;;;12.90;99.90;;;;;;5044781;28;20337;-67
2022/04/12 06:57:56;;;;;;;345.65;330.85;;;13.10;99.90;;;;;;5086485;28;20545;-67
2022/04/12 07:00:22;;;;;;;328.23;314.75;;;13.40;99.90;;;;;;5086075;28;20219;-67
2022/04/12 07:02:47;;;;;;;382.20;365.92;;;13.40;99.90;;;;;;5067931;28;20197;-68
2022/04/12 07:05:13;;;;;;;500.42;477.70;;;13.30;99.90;;;;;;5093489;28;20196;-67
2022/04/12 07:07:40;;;;;;;510.65;487.10;;;13.60;99.90;;;;;;5093923;28;20249;-68
2022/04/12 07:10:08;;;;;;;516.92;493.42;;;13.80;99.90;;;;;;5068303;28;20189;-67
2022/04/12 07:12:34;;;;;;;496.08;473.58;;;14.00;99.90;;;;;;5093720;28;20660;-67
2022/04/12 07:15:01;;;;;;;511.60;488.48;;;14.10;99.90;;;;;;5089999;28;20188;-69
2022/04/12 07:17:26;;;;;;;473.48;452.88;;;14.30;99.90;;;;;;5069846;28;20271;-67
2022/04/12 07:19:52;;;;;;;476.40;455.25;;;14.30;99.90;;;;;;5045361;28;20276;-67
2022/04/12 07:22:18;;;;;;;491.80;469.75;;;14.50;99.90;;;;;;5087045;28;20185;-68
2022/04/12 07:24:44;;;;;;;488.38;466.48;;;14.60;99.90;;;;;;5079582;28;20201;-68
2022/04/12 07:27:10;;;;;;;509.73;486.65;;;14.80;99.90;;;;;;5068415;28;20247;-68
2022/04/12 07:29:35;;;;;;;536.55;511.83;;;15.00;99.90;;;;;;5068416;28;20213;-68
2022/04/12 07:32:02;;;;;;;504.88;482.15;;;15.10;99.90;;;;;;5065078;28;20665;-68
2022/04/12 07:34:27;;;;;;;397.75;381.05;;;16.10;99.90;;;;;;5094469;28;20184;-68
2022/04/12 07:36:55;;;;;;;401.13;384.35;;;17.20;99.90;;;;;;5059693;28;20245;-67
2022/04/12 07:39:22;;;;;;;330.17;316.95;;;17.90;99.90;;;;;;5060646;28;20192;-68
2022/04/12 07:41:49;;;;;;;392.38;376.02;;;18.30;99.90;;;;;;5061803;28;20549;-68
2022/04/12 07:44:15;;;;;;;365.40;350.67;;;18.70;99.90;;;;;;5089187;28;20191;-68
2022/04/12 07:46:41;;;;;;;458.38;438.33;;;19.20;99.90;;;;;;5084634;28;20201;-69
2022/04/12 07:49:07;;;;;;;413.38;396.02;;;20.00;99.90;;;;;;5082415;28;20576;-68
2022/04/12 07:51:33;;;;;;;380.98;365.48;;;20.70;99.90;;;;;;5073351;28;20275;-68
2022/04/12 07:54:01;;;;;;;396.55;380.23;;;21.10;99.90;;;;;;5065449;28;20177;-68
2022/04/12 07:56:29;;;;;;;388.42;372.27;;;21.60;99.90;;;;;;5081552;28;20192;-68
2022/04/12 07:58:55;;;;;;;370.23;354.77;;;21.70;99.90;;;;;;5056698;28;20221;-69
2022/04/12 08:01:20;;;;;;;418.60;401.00;;;21.60;99.90;;;;;;5075139;28;20224;-69
2022/04/12 08:03:47;;;;;;;426.75;408.80;;;21.60;99.90;;;;;;5071639;28;20184;-68
2022/04/12 08:06:13;;;;;;;409.10;392.05;;;21.70;99.90;;;;;;5075430;28;20323;-68
2022/04/12 08:08:39;;;;;;;399.88;383.30;;;22.10;99.90;;;;;;5075636;28;20628;-76
2022/04/12 08:11:05;;;;;;;422.67;405.02;;;22.70;99.90;;;;;;5056973;28;20185;-77
2022/04/12 08:13:32;;;;;;;380.48;365.10;;;22.90;99.90;;;;;;5075863;28;20234;-74
2022/04/12 08:15:57;;;;;;;435.55;416.88;;;23.20;99.90;;;;;;5055779;28;20190;-76
2022/04/12 08:18:24;;;;;;;378.15;362.55;;;23.60;99.90;;;;;;5054390;28;20196;-76
2022/04/12 08:20:50;;;;;;;333.95;320.80;;;23.20;99.90;;;;;;5073106;28;20525;-76
2022/04/12 08:23:16;;;;;;;314.15;301.35;;;23.00;99.90;;;;;;5068726;28;20184;-77
2022/04/12 08:25:42;;;;;;;364.35;349.77;;;23.00;99.90;;;;;;5093627;28;20191;-76
2022/04/12 08:28:09;;;;;;;342.50;328.95;;;23.70;99.90;;;;;;5075138;28;20228;-77
2022/04/12 08:30:35;;;;;;;337.73;324.20;;;24.30;99.90;;;;;;5093727;28;20215;-76
2022/04/12 08:33:02;;;;;;;380.75;365.35;;;23.90;99.90;;;;;;5075505;28;20193;-76
2022/04/12 08:35:28;;;;;;;382.25;366.55;;;23.90;99.90;;;;;;5075543;28;20538;-76
2022/04/12 08:37:55;;;;;;;354.63;340.02;;;23.70;99.90;;;;;;5063197;28;20254;-76
2022/04/12 08:40:21;;;;;;;340.42;326.80;;;23.20;99.90;;;;;;5094018;28;20196;-77
2022/04/12 08:42:47;;;;;;;316.17;303.38;;;23.40;99.90;;;;;;5074214;28;20219;-75
2022/04/12 08:45:13;;;;;;;344.13;330.58;;;23.70;99.90;;;;;;5071037;28;20670;-79
2022/04/12 08:47:42;;;;;;;339.98;326.50;;;23.50;99.90;;;;;;5057305;28;20245;-74
2022/04/12 08:50:09;;;;;;;339.38;325.98;;;23.80;99.90;;;;;;5058969;28;20172;-75
2022/04/12 08:52:38;;;;;;;393.08;376.67;;;23.30;99.90;;;;;;5074634;28;20192;-75
2022/04/12 08:55:06;;;;;;;329.58;316.30;;;23.30;99.90;;;;;;5084314;28;20191;-72
2022/04/12 08:57:32;;;;;;;372.95;357.95;;;23.20;99.90;;;;;;5061529;28;20250;-77
2022/04/12 08:59:58;;;;;;;385.52;369.67;;;22.80;99.90;;;;;;5070618;28;20287;-75
2022/04/12 09:02:24;;;;;;;398.88;381.77;;;22.50;99.90;;;;;;5074236;28;20197;-73
2022/04/12 09:04:51;;;;;;;426.88;408.65;;;21.90;99.90;;;;;;5071099;28;20551;-81
2022/04/12 09:07:17;;;;;;;489.50;467.52;;;21.60;99.90;;;;;;5085686;28;20251;-74
2022/04/12 09:09:43;;;;;;;529.00;503.90;;;21.30;99.90;;;;;;5044609;28;20195;-76
2022/04/12 09:12:14;;;;;;;487.88;465.45;;;21.20;99.90;;;;;;5058463;28;20562;-78
2022/04/12 09:14:45;;;;;;;595.22;565.55;;;20.70;99.90;;;;;;5074782;28;20215;-75
2022/04/12 09:17:13;;;;;;;567.20;539.70;;;20.50;99.90;;;;;;5071804;28;20196;-77
2022/04/12 09:19:47;;;;;;;583.97;555.05;;;20.60;99.90;;;;;;5088426;28;20287;-76
2022/04/12 09:22:13;;;;;;;501.20;477.65;;;20.80;99.90;;;;;;5073555;28;20176;-76
2022/04/12 09:24:49;;;;;;;541.65;516.40;;;20.60;99.90;;;;;;5082119;28;20187;-79
2022/04/12 09:27:20;;;;;;;549.17;523.17;;;20.50;99.90;;;;;;5082434;28;20290;-76
2022/04/12 09:29:51;;;;;;;560.03;533.22;;;20.60;99.90;;;;;;5092879;28;20184;-79
2022/04/12 09:32:27;;;;;;;587.42;558.28;;;20.60;99.90;;;;;;5074546;28;20207;-78
2022/04/12 09:34:54;;;;;;;569.92;542.22;;;20.60;99.90;;;;;;5025766;28;20185;-78
2022/04/12 09:37:27;;;;;;;604.28;573.20;;;20.80;99.90;;;;;;5091095;28;20189;-80
2022/04/12 09:39:53;;;;;;;564.28;537.13;;;21.10;99.90;;;;;;5059284;28;20687;-74
2022/04/12 09:42:32;;;;;;;555.72;528.30;;;21.40;99.90;;;;;;5091653;28;20633;-83
2022/04/12 09:45:03;;;;;;;574.05;545.95;;;21.50;99.90;;;;;;5073437;28;20208;-70
2022/04/12 09:47:31;;;;;;;610.30;580.00;;;21.60;99.90;;;;;;5057759;28;20236;-71
2022/04/12 09:49:56;;;;;;;591.63;562.53;;;21.70;99.90;;;;;;5073564;28;20276;-71
2022/04/12 09:52:22;;;;;;;595.30;565.83;;;21.60;99.90;;;;;;5091350;28;20268;-71
2022/04/12 09:54:48;;;;;;;597.38;568.03;;;21.80;99.90;;;;;;5074342;28;20183;-70
2022/04/12 09:57:15;;;;;;;592.00;562.78;;;22.00;99.90;;;;;;5055531;28;20523;-70
2022/04/12 09:59:41;;;;;;;613.33;582.28;;;22.00;99.90;;;;;;5090982;28;20220;-69
2022/04/12 10:02:08;;;;;;;587.00;558.08;;;21.80;99.90;;;;;;5074498;28;20189;-70
2022/04/12 10:04:36;;;;;;;611.47;580.13;;;21.90;99.90;;;;;;5050032;28;20533;-69
2022/04/12 10:07:03;;;;;;;596.40;567.30;;;21.60;99.90;;;;;;5053471;28;20219;-70
2022/04/12 10:09:30;;;;;;;612.67;582.08;;;21.50;99.90;;;;;;5085335;28;20216;-75
2022/04/12 10:11:56;;;;;;;643.85;610.60;;;21.50;99.90;;;;;;5044540;28;20272;-70
2022/04/12 10:14:23;;;;;;;610.17;579.42;;;21.40;99.90;;;;;;5048811;28;20272;-70
2022/04/12 10:16:49;;;;;;;648.97;615.15;;;21.40;99.90;;;;;;5089123;28;20188;-70
2022/04/12 10:19:15;;;;;;;601.60;570.88;;;21.30;99.90;;;;;;5092630;28;20559;-70
2022/04/12 10:21:41;;;;;;;629.25;595.58;;;21.40;99.90;;;;;;5090438;28;20713;-71
2022/04/12 10:24:10;;;;;;;626.97;594.70;;;21.40;99.90;;;;;;5085635;28;20186;-70
2022/04/12 10:26:36;;;;;;;640.60;607.30;;;21.20;99.90;;;;;;5087424;28;20608;-70
2022/04/12 10:29:05;;;;;;;613.92;582.42;;;21.40;99.90;;;;;;5073711;28;20212;-71
2022/04/12 10:31:32;;;;;;;631.75;599.17;;;21.40;99.90;;;;;;5056805;28;20657;-69
2022/04/12 10:34:01;;;;;;;639.45;606.03;;;21.40;99.90;;;;;;5071893;28;20196;-71
2022/04/12 10:36:55;;;;;;;643.80;609.95;;;21.50;99.90;;;;;;5077158;28;20306;-72
2022/04/12 10:39:45;;;;;;;643.17;609.28;;;21.60;99.90;;;;;;5065209;28;20238;-70
2022/04/12 10:42:14;;;;;;;589.53;559.30;;;21.70;99.90;;;;;;5080705;28;20184;-76
2022/04/12 10:44:50;;;;;;;611.10;580.55;;;21.70;99.90;;;;;;5067240;28;20208;-73
2022/04/12 10:47:30;;;;;;;639.15;605.90;;;21.70;99.90;;;;;;5080638;28;20208;-77
2022/04/12 10:49:59;;;;;;;626.13;593.70;;;21.50;99.90;;;;;;5087862;28;20226;-67
2022/04/12 10:52:33;;;;;;;636.45;603.30;;;21.10;99.90;;;;;;5095137;28;20216;-72
2022/04/12 10:55:01;;;;;;;671.28;635.17;;;21.10;99.90;;;;;;5081067;28;20185;-72
2022/04/12 10:57:27;;;;;;;647.30;613.35;;;21.30;99.90;;;;;;5063582;28;20185;-70
2022/04/12 11:00:11;;;;;;;642.78;609.13;;;21.50;99.90;;;;;;5065321;28;20665;-71
2022/04/12 11:03:04;;;;;;;625.03;592.10;;;21.60;99.90;;;;;;5069455;28;20174;-70
2022/04/12 11:05:45;;;;;;;617.30;586.22;;;21.50;99.90;;;;;;5032415;28;20283;-71
2022/04/12 11:08:13;;;;;;;638.72;605.83;;;21.30;99.90;;;;;;5086291;28;20668;-69
2022/04/12 11:10:40;;;;;;;655.33;620.65;;;21.60;99.90;;;;;;5089401;28;20212;-71
2022/04/12 11:13:10;;;;;;;662.50;627.55;;;21.70;99.90;;;;;;5070437;28;20257;-70
2022/04/12 11:15:38;;;;;;;670.83;635.88;;;21.80;99.90;;;;;;5049991;28;20379;-72
2022/04/12 11:18:05;;;;;;;673.72;637.78;;;21.70;99.90;;;;;;5057648;28;20610;-65
2022/04/12 11:20:31;;;;;;;594.33;564.35;;;21.40;99.90;;;;;;5076600;28;20184;-67
2022/04/12 11:22:59;;;;;;;650.92;616.70;;;21.30;99.90;;;;;;5063851;28;20189;-65
2022/04/12 11:25:26;;;;;;;654.78;620.67;;;21.40;99.90;;;;;;5063198;28;20550;-69
2022/04/12 11:27:59;;;;;;;648.67;615.08;;;21.70;99.90;;;;;;5074357;28;20217;-66
2022/04/12 11:30:26;;;;;;;648.03;614.28;;;22.00;99.90;;;;;;5066315;28;20188;-66
2022/04/12 11:32:56;;;;;;;671.63;635.83;;;22.20;99.90;;;;;;5087266;28;20270;-66
2022/04/12 11:35:25;;;;;;;623.60;592.35;;;22.20;99.90;;;;;;5066495;28;20180;-65
2022/04/12 11:37:52;;;;;;;633.55;600.90;;;22.20;99.90;;;;;;5052730;28;20196;-67
2022/04/12 11:40:17;;;;;;;632.22;599.55;;;22.20;99.90;;;;;;5081869;28;20231;-74
2022/04/12 11:42:43;;;;;;;632.08;599.83;;;22.40;99.90;;;;;;5071077;28;20193;-72
2022/04/12 11:45:11;;;;;;;650.03;616.28;;;22.40;99.90;;;;;;5057120;28;20188;-74
2022/04/12 11:47:43;;;;;;;622.25;590.90;;;22.50;99.90;;;;;;5057067;28;20685;-76
2022/04/12 11:50:19;;;;;;;592.42;562.45;;;22.70;99.90;;;;;;5076097;28;20230;-76
2022/04/12 11:52:45;;;;;;;579.28;551.40;;;22.80;99.90;;;;;;5069141;28;20220;-76
2022/04/12 11:55:12;;;;;;;482.02;460.02;;;22.80;99.90;;;;;;5081652;28;20518;-75
2022/04/12 11:57:38;;;;;;;594.10;564.58;;;22.70;99.90;;;;;;5043785;28;20185;-73
2022/04/12 12:00:05;;;;;;;598.25;568.40;;;22.40;99.90;;;;;;5059576;28;20193;-75
2022/04/12 12:02:39;;;;;;;573.03;545.50;;;22.50;99.90;;;;;;5071651;28;20189;-75
2022/04/12 12:05:12;;;;;;;425.45;406.20;;;22.40;99.90;;;;;;5075670;28;20180;-76
2022/04/12 12:07:40;;;;;;;500.70;478.05;;;22.20;99.90;;;;;;5052201;28;20586;-73
2022/04/12 12:10:11;;;;;;;512.55;488.98;;;22.20;99.90;;;;;;5058556;28;20187;-75
2022/04/12 12:12:42;;;;;;;520.45;496.92;;;22.10;99.90;;;;;;5076436;28;20257;-76